Time;durP1;ratioP1;P1;durP2;ratioP2;P2;SDS_P1;SDS_P2;PMS_P1;PMS_P2;Temp;Humidity;BMP_temperature;BMP_pressure;BME280_temperature;BME280_humidity;BME280_pressure;Samples;Min_cycle;Max_cycle;Signal;HPM_P1;HPM_P2
2021/12/06 00:02:15;;;;;;;9.20;8.20;;;2.60;99.90;;;;;;6172439;23;20505;-87
2021/12/06 00:04:50;;;;;;;9.13;8.20;;;2.60;99.90;;;;;;6170161;23;20403;-87
2021/12/06 00:07:19;;;;;;;8.57;7.77;;;2.50;99.90;;;;;;6170554;23;20430;-87
2021/12/06 00:09:45;;;;;;;10.00;8.53;;;2.50;99.90;;;;;;6195528;23;20410;-86
2021/12/06 00:12:12;;;;;;;9.03;7.03;;;2.50;99.90;;;;;;6172877;23;20568;-86
2021/12/06 00:14:40;;;;;;;14.43;8.07;;;2.50;99.90;;;;;;6170640;23;20163;-87
2021/12/06 00:17:26;;;;;;;9.57;7.10;;;2.50;99.90;;;;;;6170890;23;20908;-87
2021/12/06 00:19:52;;;;;;;8.17;6.93;;;2.40;99.90;;;;;;6166756;23;20488;-87
2021/12/06 00:22:22;;;;;;;9.77;6.70;;;2.40;99.90;;;;;;6169430;23;21367;-87
2021/12/06 00:24:56;;;;;;;15.03;7.67;;;2.50;99.90;;;;;;6168729;23;20171;-87
2021/12/06 00:27:32;;;;;;;7.13;6.43;;;2.40;99.90;;;;;;6171335;23;21086;-88
2021/12/06 00:29:57;;;;;;;6.80;6.20;;;2.40;99.90;;;;;;6171499;23;20834;-88
2021/12/06 00:32:23;;;;;;;9.60;7.30;;;2.30;99.90;;;;;;6170094;23;20791;-87
2021/12/06 00:34:49;;;;;;;7.30;6.60;;;2.40;99.90;;;;;;6170205;23;20258;-88
2021/12/06 00:39:57;;;;;;;8.37;6.70;;;2.40;99.90;;;;;;6167865;23;20168;-87
2021/12/06 00:42:26;;;;;;;9.10;7.00;;;2.40;99.90;;;;;;6171443;23;20399;-87
2021/12/06 00:44:53;;;;;;;7.90;6.47;;;2.50;99.90;;;;;;6171529;23;20395;-87
2021/12/06 00:47:18;;;;;;;7.60;6.80;;;2.50;99.90;;;;;;6170198;23;20521;-87
2021/12/06 00:49:46;;;;;;;7.43;6.50;;;2.50;99.90;;;;;;6164073;23;20977;-87
2021/12/06 00:52:15;;;;;;;6.50;5.90;;;2.60;99.90;;;;;;6198190;23;20481;-87
2021/12/06 00:54:41;;;;;;;7.10;5.97;;;2.80;99.90;;;;;;6170139;23;20403;-88
2021/12/06 00:57:09;;;;;;;5.97;4.93;;;2.70;99.90;;;;;;6169267;23;20386;-86
2021/12/06 00:59:36;;;;;;;12.60;6.50;;;2.60;99.90;;;;;;6171488;23;20462;-88
2021/12/06 01:02:13;;;;;;;6.33;5.73;;;2.60;99.90;;;;;;6170536;23;20387;-86
2021/12/06 01:04:41;;;;;;;7.37;5.67;;;2.60;99.90;;;;;;6167999;23;20398;-87
2021/12/06 01:07:08;;;;;;;6.90;5.97;;;2.80;99.90;;;;;;6195463;23;20873;-87
2021/12/06 01:09:34;;;;;;;7.33;6.33;;;2.70;99.90;;;;;;6168942;23;20511;-88
2021/12/06 01:12:04;;;;;;;7.80;5.90;;;2.60;99.90;;;;;;6168960;23;20626;-88
2021/12/06 01:14:31;;;;;;;6.67;5.30;;;2.50;99.90;;;;;;6172479;23;20405;-87
2021/12/06 01:17:05;;;;;;;8.17;7.17;;;2.40;99.90;;;;;;6167785;23;20394;-87
2021/12/06 01:19:31;;;;;;;9.17;6.60;;;2.30;99.90;;;;;;6169373;23;20942;-87
2021/12/06 01:24:53;;;;;;;6.70;6.07;;;2.40;99.90;;;;;;6159882;23;20164;-87
2021/12/06 01:30:18;;;;;;;7.30;6.00;;;2.70;99.90;;;;;;6198292;23;20490;-86
2021/12/06 01:33:16;;;;;;;6.50;5.27;;;2.80;99.90;;;;;;6194343;23;20516;-87
2021/12/06 01:41:02;;;;;;;6.53;5.93;;;2.40;99.90;;;;;;6197346;23;20445;-87
2021/12/06 01:43:28;;;;;;;6.63;5.97;;;2.40;99.90;;;;;;6169567;23;20796;-87
2021/12/06 01:45:54;;;;;;;6.27;5.77;;;2.40;99.90;;;;;;6170847;23;20398;-87
2021/12/06 01:48:20;;;;;;;6.07;5.47;;;2.20;99.90;;;;;;6170408;23;20649;-87
2021/12/06 01:50:45;;;;;;;6.13;5.63;;;2.20;99.90;;;;;;6169490;23;20190;-87
2021/12/06 01:53:12;;;;;;;6.47;5.97;;;2.20;99.90;;;;;;6168934;23;20171;-87
2021/12/06 01:55:41;;;;;;;7.77;6.97;;;2.20;99.90;;;;;;6170686;23;20168;-87
2021/12/06 01:58:17;;;;;;;8.03;7.23;;;2.20;99.90;;;;;;6169103;23;20405;-87
2021/12/06 02:00:49;;;;;;;9.73;6.70;;;2.20;99.90;;;;;;6170501;23;20701;-87
2021/12/06 02:03:15;;;;;;;7.90;7.03;;;2.30;99.90;;;;;;6168494;23;20389;-87
2021/12/06 02:05:44;;;;;;;8.40;7.50;;;2.30;99.90;;;;;;6145735;23;20407;-87
2021/12/06 02:08:23;;;;;;;10.00;7.50;;;2.30;99.90;;;;;;6197764;23;20450;-87
2021/12/06 02:10:49;;;;;;;8.50;7.60;;;2.20;99.90;;;;;;6170462;23;20428;-88
2021/12/06 02:13:15;;;;;;;7.90;7.10;;;2.20;99.90;;;;;;6169438;23;20160;-87
2021/12/06 02:15:46;;;;;;;8.10;7.40;;;2.20;99.90;;;;;;6171205;23;20873;-87
2021/12/06 02:18:28;;;;;;;8.13;7.33;;;2.30;99.90;;;;;;6171518;23;20159;-87
2021/12/06 02:21:02;;;;;;;12.30;9.27;;;2.40;99.90;;;;;;6168643;23;20402;-87
2021/12/06 02:23:29;;;;;;;8.43;7.63;;;2.50;99.90;;;;;;6168572;23;20397;-87
2021/12/06 02:25:55;;;;;;;8.27;7.47;;;2.60;99.90;;;;;;6172142;23;20683;-87
2021/12/06 02:28:20;;;;;;;8.33;7.27;;;2.60;99.90;;;;;;6168884;23;20441;-88
2021/12/06 02:30:46;;;;;;;7.47;5.97;;;2.50;99.90;;;;;;6169698;23;20214;-87
2021/12/06 02:33:12;;;;;;;7.20;6.53;;;2.40;99.90;;;;;;6169751;23;20191;-87
2021/12/06 02:35:38;;;;;;;6.87;6.20;;;2.40;99.90;;;;;;6169880;23;20191;-87
2021/12/06 02:38:07;;;;;;;6.67;6.10;;;2.30;99.90;;;;;;6171281;23;20171;-87
2021/12/06 02:40:34;;;;;;;7.00;6.40;;;2.30;99.90;;;;;;6168127;23;20214;-87
2021/12/06 02:43:02;;;;;;;8.30;7.50;;;2.40;99.90;;;;;;6169089;23;20410;-88
2021/12/06 02:45:29;;;;;;;8.70;6.93;;;2.30;99.90;;;;;;6169684;23;20733;-87
2021/12/06 02:47:58;;;;;;;7.67;6.97;;;2.30;99.90;;;;;;6169505;23;20449;-88
2021/12/06 02:50:28;;;;;;;7.53;6.83;;;2.40;99.90;;;;;;6168976;23;20456;-88
2021/12/06 02:52:56;;;;;;;7.33;6.63;;;2.50;99.90;;;;;;6166088;23;20412;-89
2021/12/06 02:55:34;;;;;;;7.70;6.20;;;2.50;99.90;;;;;;6169960;23;20674;-89
2021/12/06 02:58:22;;;;;;;6.80;6.20;;;2.50;99.90;;;;;;6169615;23;20534;-88
2021/12/06 03:00:53;;;;;;;7.00;6.30;;;2.60;99.90;;;;;;6170687;23;20474;-87
2021/12/06 03:03:20;;;;;;;7.57;6.33;;;2.50;99.90;;;;;;6170239;23;20399;-88
2021/12/06 03:05:49;;;;;;;7.87;6.90;;;2.60;99.90;;;;;;6169478;23;20401;-87
2021/12/06 03:08:38;;;;;;;7.03;6.33;;;2.60;99.90;;;;;;6170776;23;20528;-88
2021/12/06 03:11:06;;;;;;;7.33;6.63;;;2.60;99.90;;;;;;6172041;23;20410;-88
2021/12/06 03:13:32;;;;;;;7.53;6.50;;;2.60;99.90;;;;;;6198670;23;20378;-87
2021/12/06 03:15:58;;;;;;;7.90;7.13;;;2.60;99.90;;;;;;6170208;23;20742;-88
2021/12/06 03:18:24;;;;;;;8.07;7.30;;;2.70;99.90;;;;;;6170549;23;20472;-87
2021/12/06 03:20:50;;;;;;;7.67;6.93;;;2.60;99.90;;;;;;6171740;23;20167;-87
2021/12/06 03:23:16;;;;;;;8.57;7.70;;;2.40;99.90;;;;;;6170033;23;20460;-87
2021/12/06 03:25:44;;;;;;;8.50;7.70;;;2.30;99.90;;;;;;6198717;23;20163;-88
2021/12/06 03:28:09;;;;;;;9.37;7.50;;;2.20;99.90;;;;;;6199565;23;20441;-88
2021/12/06 03:30:35;;;;;;;8.17;7.33;;;2.20;99.90;;;;;;6171085;23;20861;-88
2021/12/06 03:33:01;;;;;;;10.07;8.60;;;2.40;99.90;;;;;;6171716;23;20622;-88
2021/12/06 03:35:27;;;;;;;8.73;7.93;;;2.30;99.90;;;;;;6172706;23;20637;-88
2021/12/06 03:37:53;;;;;;;9.93;8.63;;;2.40;99.90;;;;;;6171491;23;20179;-88
2021/12/06 03:40:18;;;;;;;9.60;8.60;;;2.50;99.90;;;;;;6171346;23;20171;-88
2021/12/06 03:42:44;;;;;;;8.60;7.80;;;2.50;99.90;;;;;;6171631;23;20410;-88
2021/12/06 03:45:12;;;;;;;9.37;8.47;;;2.50;99.90;;;;;;6170382;23;20285;-87
2021/12/06 03:47:38;;;;;;;8.30;7.50;;;2.40;99.90;;;;;;6170517;23;20450;-87
2021/12/06 03:50:06;;;;;;;7.50;6.80;;;2.50;99.90;;;;;;6172329;23;20464;-87
2021/12/06 03:52:32;;;;;;;8.57;7.67;;;2.60;99.90;;;;;;6170953;23;20407;-86
2021/12/06 03:54:58;;;;;;;8.83;7.53;;;2.70;99.90;;;;;;6172476;23;20923;-87
2021/12/06 03:57:25;;;;;;;9.13;8.23;;;2.70;99.90;;;;;;6171550;23;20402;-86
2021/12/06 03:59:52;;;;;;;8.10;7.30;;;2.60;99.90;;;;;;6171125;23;20429;-87
2021/12/06 04:02:22;;;;;;;8.07;7.37;;;2.60;99.90;;;;;;6172200;23;20682;-87
2021/12/06 04:04:48;;;;;;;9.00;7.60;;;2.50;99.90;;;;;;6172538;23;20394;-87
2021/12/06 04:07:14;;;;;;;7.80;7.10;;;2.70;99.90;;;;;;6168335;23;20739;-87
2021/12/06 04:09:40;;;;;;;8.73;7.93;;;2.70;99.90;;;;;;6167819;23;20607;-86
2021/12/06 04:12:08;;;;;;;9.23;7.97;;;2.60;99.90;;;;;;6170889;23;20718;-87
2021/12/06 04:14:35;;;;;;;8.13;7.33;;;2.60;99.90;;;;;;6169385;23;20416;-87
2021/12/06 04:17:01;;;;;;;9.87;8.87;;;2.60;99.90;;;;;;6173664;23;20614;-87
2021/12/06 04:19:33;;;;;;;10.17;9.17;;;2.50;99.90;;;;;;6167557;23;20864;-87
2021/12/06 04:21:59;;;;;;;10.03;8.20;;;2.50;99.90;;;;;;6168036;23;20167;-87
2021/12/06 04:24:27;;;;;;;10.07;8.97;;;2.60;99.90;;;;;;6170316;23;20982;-87
2021/12/06 04:26:52;;;;;;;8.73;7.93;;;2.60;99.90;;;;;;6170941;23;20399;-87
2021/12/06 04:29:18;;;;;;;8.57;7.73;;;2.60;99.90;;;;;;6169789;23;21038;-87
2021/12/06 04:31:53;;;;;;;9.30;8.40;;;2.70;99.90;;;;;;6169499;23;20191;-87
2021/12/06 04:34:27;;;;;;;9.80;8.83;;;2.70;99.90;;;;;;6171782;23;20219;-87
2021/12/06 04:36:52;;;;;;;9.60;8.60;;;2.60;99.90;;;;;;6173428;23;21144;-88
2021/12/06 04:39:20;;;;;;;10.27;8.80;;;2.60;99.90;;;;;;6169276;23;20422;-87
2021/12/06 04:41:50;;;;;;;10.07;7.80;;;2.60;99.90;;;;;;6198724;23;20553;-88
2021/12/06 04:44:16;;;;;;;10.63;9.00;;;2.60;99.90;;;;;;6173295;23;20427;-88
2021/12/06 04:46:42;;;;;;;9.30;8.37;;;2.60;99.90;;;;;;6172088;23;20486;-87
2021/12/06 04:49:08;;;;;;;9.60;8.60;;;2.70;99.90;;;;;;6171155;23;20542;-88
2021/12/06 04:51:36;;;;;;;8.70;7.80;;;2.80;99.90;;;;;;6172096;23;20929;-87
2021/12/06 04:54:03;;;;;;;9.07;7.70;;;2.80;99.90;;;;;;6172165;23;20441;-87
2021/12/06 04:56:34;;;;;;;9.77;8.43;;;2.80;99.90;;;;;;6170932;23;20391;-88
2021/12/06 04:59:15;;;;;;;11.10;8.57;;;2.70;99.90;;;;;;6170735;23;20406;-88
2021/12/06 05:01:43;;;;;;;12.00;8.73;;;2.80;99.90;;;;;;6169994;23;20391;-87
2021/12/06 05:04:15;;;;;;;9.63;8.47;;;2.90;99.90;;;;;;6172618;23;20406;-87
2021/12/06 05:06:44;;;;;;;9.80;8.77;;;2.80;99.90;;;;;;6173731;23;20395;-87
2021/12/06 05:09:25;;;;;;;8.80;8.00;;;2.70;99.90;;;;;;6170867;23;20446;-87
2021/12/06 05:11:54;;;;;;;10.50;8.87;;;2.70;99.90;;;;;;6171101;23;20434;-87
2021/12/06 05:14:32;;;;;;;10.77;8.47;;;2.80;99.90;;;;;;6167682;23;20410;-87
2021/12/06 05:16:57;;;;;;;10.63;9.20;;;2.80;99.90;;;;;;6171611;23;20398;-87
2021/12/06 05:19:23;;;;;;;10.33;8.73;;;2.80;99.90;;;;;;6170760;23;20404;-87
2021/12/06 05:21:50;;;;;;;11.60;9.23;;;2.80;99.90;;;;;;6170977;23;20402;-87
2021/12/06 05:24:16;;;;;;;13.57;10.50;;;2.90;99.90;;;;;;6168876;23;20239;-87
2021/12/06 05:26:43;;;;;;;12.57;9.70;;;2.90;99.90;;;;;;6167908;23;20394;-88
2021/12/06 05:29:11;;;;;;;11.83;10.00;;;2.80;99.90;;;;;;6168211;23;20438;-87
2021/12/06 05:31:40;;;;;;;12.73;8.67;;;2.90;99.90;;;;;;6170973;23;20776;-87
2021/12/06 05:34:14;;;;;;;10.47;9.13;;;2.90;99.90;;;;;;6168958;23;20779;-87
2021/12/06 05:36:41;;;;;;;9.10;8.03;;;2.90;99.90;;;;;;6171409;23;20390;-87
2021/12/06 05:39:07;;;;;;;8.93;8.13;;;2.80;99.90;;;;;;6171090;23;20642;-88
2021/12/06 05:41:34;;;;;;;9.70;8.77;;;2.80;99.90;;;;;;6170569;23;20481;-89
2021/12/06 05:44:00;;;;;;;10.80;8.37;;;2.70;99.90;;;;;;6170506;23;20395;-89
2021/12/06 05:46:26;;;;;;;12.23;9.00;;;2.70;99.90;;;;;;6171495;23;20577;-90
2021/12/06 05:48:52;;;;;;;9.90;8.90;;;2.70;99.90;;;;;;6170639;23;21304;-90
2021/12/06 05:51:18;;;;;;;12.00;8.77;;;2.80;99.90;;;;;;6169802;23;20857;-93
2021/12/06 05:53:45;;;;;;;10.60;9.40;;;2.70;99.90;;;;;;6172750;23;20759;-91
2021/12/06 05:56:10;;;;;;;11.23;9.50;;;2.70;99.90;;;;;;6171299;23;20400;-90
2021/12/06 05:58:37;;;;;;;10.10;8.97;;;2.70;99.90;;;;;;6170984;23;20865;-89
2021/12/06 06:01:04;;;;;;;11.40;8.40;;;2.70;99.90;;;;;;6172762;23;20233;-89
2021/12/06 06:03:30;;;;;;;10.67;8.50;;;2.80;99.90;;;;;;6171744;23;20501;-88
2021/12/06 06:05:56;;;;;;;9.20;8.27;;;2.80;99.90;;;;;;6172647;23;20873;-88
2021/12/06 06:08:22;;;;;;;10.10;9.10;;;2.80;99.90;;;;;;6172363;23;20203;-88
2021/12/06 06:10:50;;;;;;;11.00;8.53;;;2.80;99.90;;;;;;6172919;23;20399;-89
2021/12/06 06:13:16;;;;;;;10.10;9.10;;;2.90;99.90;;;;;;6171213;23;20156;-89
2021/12/06 06:15:42;;;;;;;11.33;9.10;;;2.90;99.90;;;;;;6170782;23;20391;-89
2021/12/06 06:18:08;;;;;;;13.63;9.60;;;2.80;99.90;;;;;;6171187;23;20726;-90
2021/12/06 06:20:36;;;;;;;9.70;8.80;;;2.80;99.90;;;;;;6165554;23;20650;-90
2021/12/06 06:23:03;;;;;;;10.57;8.27;;;2.90;99.90;;;;;;6168894;23;20494;-90
2021/12/06 06:25:29;;;;;;;9.37;8.20;;;3.00;99.90;;;;;;6170310;23;20434;-90
2021/12/06 06:27:56;;;;;;;9.73;8.77;;;3.00;99.90;;;;;;6168651;23;20829;-89
2021/12/06 06:30:21;;;;;;;11.90;10.70;;;3.00;99.90;;;;;;6171183;23;20423;-90
2021/12/06 06:32:47;;;;;;;9.23;8.33;;;2.90;99.90;;;;;;6169451;23;20402;-89
2021/12/06 06:35:17;;;;;;;12.50;9.70;;;2.80;99.90;;;;;;6167272;23;20159;-89
2021/12/06 06:37:46;;;;;;;14.63;10.60;;;2.80;99.90;;;;;;6170279;23;20579;-89
2021/12/06 06:40:12;;;;;;;10.87;9.77;;;2.70;99.90;;;;;;6170488;23;20820;-89
2021/12/06 06:42:39;;;;;;;12.27;9.90;;;2.70;99.90;;;;;;6170038;23;20391;-90
2021/12/06 06:45:07;;;;;;;11.57;9.40;;;2.80;99.90;;;;;;6170285;23;21045;-89
2021/12/06 06:47:36;;;;;;;11.53;9.87;;;2.80;99.90;;;;;;6168777;23;20555;-90
2021/12/06 06:50:06;;;;;;;12.73;11.20;;;2.80;99.90;;;;;;6167954;23;20391;-89
2021/12/06 06:52:32;;;;;;;11.13;9.97;;;2.80;99.90;;;;;;6199338;23;20726;-89
2021/12/06 06:55:00;;;;;;;11.67;10.17;;;2.80;99.90;;;;;;6165114;23;20399;-89
2021/12/06 06:57:26;;;;;;;12.80;10.37;;;2.80;99.90;;;;;;6170221;23;20406;-88
2021/12/06 06:59:54;;;;;;;11.27;10.07;;;2.80;99.90;;;;;;6169995;23;20394;-89
2021/12/06 07:02:20;;;;;;;12.03;10.23;;;2.80;99.90;;;;;;6171802;23;20416;-89
2021/12/06 07:05:09;;;;;;;12.80;10.60;;;2.80;99.90;;;;;;6170753;23;20403;-88
2021/12/06 07:07:44;;;;;;;16.73;11.60;;;3.00;99.90;;;;;;6196865;23;20735;-88
2021/12/06 07:10:17;;;;;;;18.93;13.10;;;3.10;99.90;;;;;;6171676;23;20473;-87
2021/12/06 07:13:11;;;;;;;24.27;18.13;;;3.10;99.90;;;;;;6172229;23;20691;-88
2021/12/06 07:15:51;;;;;;;;;;;;;;;;;;;;;
2021/12/06 07:18:19;;;;;;;14.50;11.90;;;3.00;99.90;;;;;;6198321;23;20390;-89
2021/12/06 07:20:45;;;;;;;11.50;10.27;;;2.90;99.90;;;;;;6176476;23;20394;-89
2021/12/06 07:23:20;;;;;;;11.73;9.10;;;3.00;99.90;;;;;;6197129;23;20440;-89
2021/12/06 07:25:51;;;;;;;10.23;9.03;;;3.00;99.90;;;;;;6171328;23;20170;-89
2021/12/06 07:28:22;;;;;;;11.53;10.27;;;3.00;99.90;;;;;;6170219;23;20442;-88
2021/12/06 07:30:48;;;;;;;10.60;8.63;;;3.00;99.90;;;;;;6170864;23;20398;-88
2021/12/06 07:33:14;;;;;;;9.53;8.53;;;3.10;99.90;;;;;;6168281;23;20394;-88
2021/12/06 07:35:39;;;;;;;11.90;8.80;;;3.10;99.90;;;;;;6196791;23;20620;-88
2021/12/06 07:38:07;;;;;;;9.90;8.00;;;3.00;99.90;;;;;;6170428;23;20187;-89
2021/12/06 07:40:44;;;;;;;;;;;;;;;;;;;;;
2021/12/06 07:43:10;;;;;;;9.00;8.10;;;2.80;99.90;;;;;;6197372;23;20394;-89
2021/12/06 07:45:36;;;;;;;9.40;8.50;;;2.80;99.90;;;;;;6169968;23;20801;-88
2021/12/06 07:48:04;;;;;;;13.60;9.03;;;2.90;99.90;;;;;;6168684;23;20205;-87
2021/12/06 07:50:30;;;;;;;8.90;8.10;;;2.90;99.90;;;;;;6168396;23;20187;-88
2021/12/06 07:53:03;;;;;;;11.07;9.10;;;2.90;99.90;;;;;;6167348;23;20439;-88
2021/12/06 07:55:32;;;;;;;10.97;8.23;;;3.00;99.90;;;;;;6169793;23;20196;-87
2021/12/06 07:57:59;;;;;;;12.10;9.37;;;3.10;99.90;;;;;;6196487;23;20397;-89
2021/12/06 08:00:29;;;;;;;13.23;9.67;;;3.00;99.90;;;;;;6169027;23;20406;-87
2021/12/06 08:02:56;;;;;;;12.23;9.77;;;2.90;99.90;;;;;;6172039;23;20832;-86
2021/12/06 08:05:33;;;;;;;11.67;9.60;;;2.90;99.90;;;;;;6170699;23;20395;-86
2021/12/06 08:08:11;;;;;;;12.57;10.23;;;2.80;99.90;;;;;;6171048;23;20469;-87
2021/12/06 08:10:43;;;;;;;13.00;9.67;;;2.80;99.90;;;;;;6171274;23;20720;-87
2021/12/06 08:13:10;;;;;;;12.67;10.83;;;2.90;99.90;;;;;;6170174;23;20409;-88
2021/12/06 08:15:36;;;;;;;13.00;10.90;;;2.80;99.90;;;;;;6169403;23;20536;-86
2021/12/06 08:18:03;;;;;;;18.53;11.30;;;2.90;99.90;;;;;;6171111;23;20395;-88
2021/12/06 08:20:28;;;;;;;12.80;11.50;;;2.90;99.90;;;;;;6170711;23;20581;-89
2021/12/06 08:22:54;;;;;;;14.00;10.87;;;2.90;99.90;;;;;;6170980;23;20945;-89
2021/12/06 08:25:20;;;;;;;13.03;11.17;;;3.00;99.90;;;;;;6171385;23;20178;-88
2021/12/06 08:27:48;;;;;;;13.87;10.93;;;3.00;99.90;;;;;;6171380;23;20230;-89
2021/12/06 08:30:16;;;;;;;13.07;11.13;;;3.10;99.90;;;;;;6177567;23;20182;-91
2021/12/06 08:33:08;;;;;;;17.43;11.83;;;3.20;99.90;;;;;;6170659;23;20402;-90
2021/12/06 08:35:38;;;;;;;15.50;11.70;;;3.30;99.90;;;;;;6173817;23;20741;-91
2021/12/06 08:38:05;;;;;;;16.10;12.30;;;3.40;99.90;;;;;;6173264;23;20787;-91
2021/12/06 08:40:31;;;;;;;14.70;12.10;;;3.40;99.90;;;;;;6172960;23;20407;-91
2021/12/06 08:42:57;;;;;;;12.37;11.10;;;3.50;99.90;;;;;;6197318;23;20869;-90
2021/12/06 08:45:26;;;;;;;12.53;10.20;;;3.60;99.90;;;;;;6170912;23;20417;-90
2021/12/06 08:47:53;;;;;;;13.37;10.53;;;3.70;99.90;;;;;;6171994;23;20445;-91
2021/12/06 08:50:22;;;;;;;11.20;10.00;;;3.70;99.90;;;;;;6169414;23;20603;-92
2021/12/06 08:52:51;;;;;;;13.87;10.47;;;3.70;99.90;;;;;;6171951;23;20736;-93
2021/12/06 08:55:35;;;;;;;16.07;12.53;;;3.70;99.90;;;;;;6172948;23;20399;-94
2021/12/06 08:58:02;;;;;;;12.13;10.10;;;3.60;99.90;;;;;;6171762;23;20777;-92
2021/12/06 09:00:40;;;;;;;12.37;10.03;;;3.70;99.90;;;;;;6172262;23;20492;-91
2021/12/06 09:03:11;;;;;;;14.80;10.23;;;3.70;99.90;;;;;;6172347;23;20409;-92
2021/12/06 09:05:41;;;;;;;13.63;10.50;;;3.60;99.90;;;;;;6171507;23;20400;-90
2021/12/06 09:08:08;;;;;;;12.20;10.10;;;3.60;99.90;;;;;;6171750;23;20748;-93
2021/12/06 09:10:35;;;;;;;16.80;10.80;;;3.70;99.90;;;;;;6173016;23;20505;-90
2021/12/06 09:13:01;;;;;;;11.67;10.40;;;3.60;99.90;;;;;;6170404;23;20406;-90
2021/12/06 09:15:27;;;;;;;13.37;11.57;;;3.60;99.90;;;;;;6172794;23;20745;-90
2021/12/06 09:17:54;;;;;;;13.97;11.33;;;3.60;99.90;;;;;;6172311;23;20414;-90
2021/12/06 09:20:38;;;;;;;13.80;10.30;;;3.60;99.90;;;;;;6172505;23;20399;-90
2021/12/06 09:23:06;;;;;;;13.10;11.37;;;3.70;99.90;;;;;;6171412;23;20405;-90
2021/12/06 09:25:33;;;;;;;11.70;9.80;;;3.80;99.90;;;;;;6173180;23;20403;-90
2021/12/06 09:28:02;;;;;;;13.63;11.70;;;3.80;99.90;;;;;;6174354;23;20566;-90
2021/12/06 09:30:46;;;;;;;13.90;11.10;;;3.80;99.90;;;;;;6171996;23;20412;-90
2021/12/06 09:33:19;;;;;;;12.40;11.03;;;3.70;99.90;;;;;;6174405;23;20395;-90
2021/12/06 09:35:48;;;;;;;14.10;10.97;;;3.70;99.90;;;;;;6173713;23;20395;-91
2021/12/06 09:38:16;;;;;;;13.27;10.60;;;3.80;99.90;;;;;;6175080;23;20758;-91
2021/12/06 09:40:46;;;;;;;14.80;10.67;;;4.00;99.90;;;;;;6173843;23;20820;-90
2021/12/06 09:43:14;;;;;;;15.33;12.63;;;4.20;99.90;;;;;;6173944;23;20530;-91
2021/12/06 09:45:41;;;;;;;17.43;12.13;;;4.20;99.90;;;;;;6174051;23;20448;-90
2021/12/06 09:48:08;;;;;;;16.33;13.30;;;4.20;99.90;;;;;;6170172;23;20448;-91
2021/12/06 09:51:03;;;;;;;14.00;11.20;;;4.30;99.90;;;;;;6173009;23;20404;-93
2021/12/06 09:53:42;;;;;;;14.40;10.70;;;4.30;99.90;;;;;;6167405;23;20399;-92
2021/12/06 09:56:12;;;;;;;14.93;12.43;;;4.30;99.90;;;;;;6172916;23;20406;-90
2021/12/06 09:59:02;;;;;;;;;;;;;;;;;;;;;
2021/12/06 10:04:53;;;;;;;15.70;12.20;;;4.10;99.90;;;;;;6179319;23;20419;-93
2021/12/06 10:07:37;;;;;;;16.97;12.50;;;4.20;99.90;;;;;;6176782;23;20482;-92
2021/12/06 10:10:11;;;;;;;16.90;12.80;;;4.30;99.90;;;;;;6172878;23;20773;-94
2021/12/06 10:12:37;;;;;;;17.40;12.73;;;4.30;99.90;;;;;;6174518;23;20393;-95
2021/12/06 10:15:05;;;;;;;21.53;13.90;;;4.30;99.90;;;;;;6171721;23;20403;-90
2021/12/06 10:17:35;;;;;;;17.67;13.10;;;4.30;99.90;;;;;;6199553;23;20394;-90
2021/12/06 10:20:23;;;;;;;17.43;12.77;;;4.30;99.90;;;;;;6174617;23;20801;-94
2021/12/06 10:22:51;;;;;;;18.30;13.00;;;4.40;99.90;;;;;;6173376;23;20397;-92
2021/12/06 10:25:17;;;;;;;15.63;12.40;;;4.40;99.90;;;;;;6172619;23;20440;-91
2021/12/06 10:28:03;;;;;;;15.70;10.53;;;4.50;99.90;;;;;;6172144;23;20514;-91
2021/12/06 10:30:41;;;;;;;14.47;11.00;;;4.50;99.90;;;;;;6171640;23;20794;-93
2021/12/06 10:33:11;;;;;;;14.37;10.27;;;4.40;99.90;;;;;;6172250;23;20484;-89
2021/12/06 10:35:49;;;;;;;13.03;9.70;;;4.60;99.90;;;;;;6173427;23;20391;-90
2021/12/06 10:38:41;;;;;;;12.70;10.57;;;4.70;99.90;;;;;;6172890;23;20858;-90
2021/12/06 10:41:15;;;;;;;17.30;11.23;;;4.70;99.90;;;;;;6172498;23;20425;-92
2021/12/06 10:43:52;;;;;;;14.17;10.10;;;4.80;99.90;;;;;;6174437;23;20390;-89
2021/12/06 10:46:18;;;;;;;14.57;11.10;;;4.80;99.90;;;;;;6193241;23;20782;-90
2021/12/06 10:48:45;;;;;;;14.63;9.80;;;4.70;99.90;;;;;;6170633;23;20439;-89
2021/12/06 10:51:23;;;;;;;13.90;9.50;;;4.70;99.90;;;;;;6172274;23;20401;-89
2021/12/06 10:54:06;;;;;;;10.77;8.53;;;4.80;99.90;;;;;;6171579;23;20463;-90
2021/12/06 10:56:42;;;;;;;12.33;9.40;;;5.10;99.90;;;;;;6171226;23;20416;-91
2021/12/06 10:59:31;;;;;;;14.27;9.97;;;5.40;99.90;;;;;;6171083;23;20837;-90
2021/12/06 11:02:10;;;;;;;9.30;8.33;;;5.40;99.90;;;;;;6172584;23;20405;-90
2021/12/06 11:04:40;;;;;;;10.70;7.33;;;5.30;99.90;;;;;;6170258;23;20409;-90
2021/12/06 11:07:32;;;;;;;7.50;6.70;;;5.30;99.90;;;;;;6168769;23;20614;-92
2021/12/06 11:10:04;;;;;;;7.03;6.00;;;5.40;99.90;;;;;;6167301;23;20507;-90
2021/12/06 11:12:34;;;;;;;7.47;6.17;;;5.70;99.90;;;;;;6169586;23;20413;-94
2021/12/06 11:15:22;;;;;;;6.40;5.70;;;6.10;99.90;;;;;;6174202;23;20780;-93
2021/12/06 11:18:29;;;;;;;;;;;;;;;;;;;;;
2021/12/06 11:21:05;;;;;;;5.93;5.43;;;5.60;99.90;;;;;;6184812;23;20800;-93
2021/12/06 11:23:33;;;;;;;6.10;5.50;;;5.40;99.90;;;;;;6172460;23;20455;-94
2021/12/06 11:26:04;;;;;;;7.03;5.13;;;5.20;99.90;;;;;;6148987;23;20500;-94
2021/12/06 11:28:32;;;;;;;5.47;4.90;;;5.00;99.90;;;;;;6196545;23;20928;-94
2021/12/06 11:31:12;;;;;;;5.37;4.87;;;5.20;99.90;;;;;;6170546;23;20399;-91
2021/12/06 11:33:38;;;;;;;8.43;7.53;;;5.20;99.90;;;;;;6171226;23;20437;-88
2021/12/06 11:36:22;;;;;;;5.67;5.13;;;5.40;99.90;;;;;;6172633;23;20784;-90
2021/12/06 11:39:05;;;;;;;8.67;5.67;;;5.30;99.90;;;;;;6171593;23;20171;-93
2021/12/06 11:41:31;;;;;;;7.90;6.10;;;5.40;99.90;;;;;;6172437;23;20408;-92
2021/12/06 11:44:20;;;;;;;9.60;7.00;;;5.40;99.90;;;;;;6171946;23;20405;-92
2021/12/06 11:47:09;;;;;;;11.73;7.80;;;5.40;99.90;;;;;;6176704;23;20394;-92
2021/12/06 11:49:49;;;;;;;7.60;6.27;;;5.50;99.90;;;;;;6173742;23;20448;-92
2021/12/06 11:52:27;;;;;;;7.73;6.50;;;5.50;99.90;;;;;;6171379;23;20931;-92
2021/12/06 11:54:58;;;;;;;7.90;6.93;;;5.30;99.90;;;;;;6174185;23;20394;-92
2021/12/06 11:57:38;;;;;;;7.10;6.33;;;5.10;99.90;;;;;;6173588;23;20410;-92
2021/12/06 12:00:15;;;;;;;9.10;6.67;;;5.00;99.90;;;;;;6175363;23;20412;-92
2021/12/06 12:03:01;;;;;;;8.93;6.50;;;5.00;99.90;;;;;;6200999;23;20397;-93
2021/12/06 12:05:30;;;;;;;7.93;7.13;;;5.00;99.90;;;;;;6175300;23;20410;-92
2021/12/06 12:07:58;;;;;;;14.13;10.00;;;5.10;99.90;;;;;;6173868;23;20446;-91
2021/12/06 12:10:45;;;;;;;9.00;7.67;;;5.30;99.90;;;;;;6171695;23;20411;-92
2021/12/06 12:13:24;;;;;;;8.03;7.23;;;5.30;99.90;;;;;;6172432;23;20411;-92
2021/12/06 12:15:59;;;;;;;12.97;7.40;;;5.30;99.90;;;;;;6174926;23;20394;-93
2021/12/06 12:18:31;;;;;;;9.40;7.23;;;5.30;99.90;;;;;;6175093;23;20452;-92
2021/12/06 12:20:57;;;;;;;9.27;7.50;;;5.30;99.90;;;;;;6199663;23;20727;-92
2021/12/06 12:23:25;;;;;;;15.03;9.70;;;5.40;99.90;;;;;;6167957;23;20822;-93
2021/12/06 12:26:35;;;;;;;10.53;8.73;;;5.50;99.90;;;;;;6200657;23;20393;-92
2021/12/06 12:29:28;;;;;;;8.90;8.00;;;5.60;99.90;;;;;;6187864;23;20782;-93
2021/12/06 12:32:03;;;;;;;10.10;7.90;;;5.60;99.90;;;;;;6173313;23;20393;-91
2021/12/06 12:34:35;;;;;;;14.67;10.60;;;5.80;99.90;;;;;;6172205;23;20415;-92
2021/12/06 12:37:08;;;;;;;10.33;7.80;;;5.90;99.90;;;;;;6174575;23;20957;-91
2021/12/06 12:39:35;;;;;;;10.87;8.20;;;6.00;99.90;;;;;;6147777;23;20513;-94
2021/12/06 12:42:04;;;;;;;9.43;8.43;;;6.10;99.90;;;;;;6171450;23;20863;-87
2021/12/06 12:45:16;;;;;;;10.30;6.90;;;7.50;99.90;;;;;;6171253;23;20947;-88
2021/12/06 12:48:04;;;;;;;8.80;7.60;;;11.10;99.90;;;;;;6173559;23;20410;-94
2021/12/06 12:51:34;;;;;;;;;;;;;;;;;;;;;
2021/12/06 12:54:53;;;;;;;10.23;7.27;;;12.50;91.30;;;;;;6199617;23;20877;-93
2021/12/06 12:57:16;;;;;;;7.97;6.77;;;9.60;95.40;;;;;;6199254;23;20746;-91
2021/12/06 12:59:50;;;;;;;9.17;7.27;;;7.90;99.70;;;;;;6200317;23;20485;-93
2021/12/06 13:02:34;;;;;;;8.77;7.10;;;7.40;99.90;;;;;;6174202;23;20736;-93
2021/12/06 13:09:14;;;;;;;8.10;6.77;;;6.80;99.90;;;;;;6178046;23;20881;-90
2021/12/06 13:12:06;;;;;;;6.70;4.97;;;7.70;99.90;;;;;;6162513;23;20423;-90
2021/12/06 13:14:58;;;;;;;7.00;4.93;;;9.20;99.30;;;;;;6173091;23;20517;-94
2021/12/06 13:17:47;;;;;;;7.90;6.30;;;10.20;96.70;;;;;;6197975;23;20730;-91
2021/12/06 13:20:21;;;;;;;4.53;4.13;;;12.30;94.10;;;;;;6174013;23;20398;-91
2021/12/06 13:23:43;;;;;;;5.83;5.23;;;12.20;91.80;;;;;;6172366;23;20457;-91
2021/12/06 13:26:09;;;;;;;5.30;4.80;;;12.90;91.30;;;;;;6172340;23;20774;-91
2021/12/06 13:29:09;;;;;;;5.20;4.70;;;13.00;90.20;;;;;;6172496;23;20453;-91
2021/12/06 13:34:42;;;;;;;8.77;4.60;;;12.20;90.50;;;;;;6198378;23;20676;-90
2021/12/06 13:37:10;;;;;;;4.83;4.33;;;11.50;91.60;;;;;;6171158;23;20401;-91
2021/12/06 13:40:48;;;;;;;;;;;;;;;;;;;;;
2021/12/06 13:42:46;;;;;;;7.10;5.83;;;12.60;90.40;;;;;;6178183;23;21051;-92
2021/12/06 13:45:21;;;;;;;5.10;4.70;;;13.10;87.90;;;;;;6194413;23;20407;-91